createdAt,value
2022-10-19T00:00:39.108Z,17.6
2022-10-19T00:01:56.164Z,17.6
2022-10-19T00:03:13.115Z,17.5
2022-10-19T00:04:30.114Z,17.5
2022-10-19T00:05:47.146Z,17.5
2022-10-19T00:07:04.128Z,17.4
2022-10-19T00:08:21.106Z,17.4
2022-10-19T00:09:38.141Z,17.4
2022-10-19T00:10:55.108Z,17.4
2022-10-19T00:12:12.147Z,17.3
2022-10-19T00:13:29.123Z,17.3
2022-10-19T00:14:46.145Z,17.3
2022-10-19T00:16:03.658Z,17.4
2022-10-19T00:17:20.141Z,17.5
2022-10-19T00:18:37.118Z,17.6
2022-10-19T00:19:54.119Z,17.7
2022-10-19T00:21:11.115Z,17.6
2022-10-19T00:22:28.164Z,17.7
2022-10-19T00:23:45.128Z,17.6
2022-10-19T00:25:02.621Z,17.6
2022-10-19T00:26:20.144Z,17.5
2022-10-19T00:27:37.171Z,17.4
2022-10-19T00:28:54.184Z,17.3
2022-10-19T00:30:11.174Z,17.3
2022-10-19T00:31:28.173Z,17.3
2022-10-19T00:32:45.145Z,17.4
2022-10-19T00:34:02.204Z,17.3
2022-10-19T00:35:28.973Z,17.4
2022-10-19T00:36:46.153Z,17.4
2022-10-19T00:38:03.200Z,17.5
2022-10-19T00:39:20.152Z,17.5
2022-10-19T00:40:37.180Z,17.5
2022-10-19T00:41:54.159Z,17.4
2022-10-19T00:43:11.194Z,17.4
2022-10-19T00:44:28.155Z,17.3
2022-10-19T00:45:45.146Z,17.3
2022-10-19T00:47:02.246Z,17.4
2022-10-19T00:48:19.190Z,17.4
2022-10-19T00:49:36.159Z,17.5
2022-10-19T00:50:53.179Z,17.5
2022-10-19T00:52:10.177Z,17.6
2022-10-19T00:53:27.233Z,17.7
2022-10-19T00:54:44.167Z,17.7
2022-10-19T00:56:01.221Z,17.6
2022-10-19T00:57:18.168Z,17.6
2022-10-19T00:58:35.241Z,17.7
2022-10-19T00:59:52.180Z,17.6
2022-10-19T01:01:09.203Z,17.5
2022-10-19T01:02:26.263Z,17.4
2022-10-19T01:03:43.218Z,17.3
2022-10-19T01:05:00.267Z,17.2
2022-10-19T01:06:17.212Z,17.2
2022-10-19T01:07:34.470Z,17.2
2022-10-19T01:08:51.499Z,17.1
2022-10-19T01:10:08.286Z,17.2
2022-10-19T01:11:25.203Z,17.2
2022-10-19T01:12:42.205Z,17.2
2022-10-19T01:13:59.229Z,17.2
2022-10-19T01:15:16.262Z,17.1
2022-10-19T01:16:33.240Z,17
2022-10-19T01:17:50.260Z,16.9
2022-10-19T01:19:07.235Z,17
2022-10-19T01:20:24.233Z,17
2022-10-19T01:21:41.212Z,17
2022-10-19T01:22:58.213Z,17
2022-10-19T01:24:15.217Z,17.1
2022-10-19T01:25:32.274Z,17.1
2022-10-19T01:26:49.251Z,17.2
2022-10-19T01:28:06.233Z,17.2
2022-10-19T01:29:24.087Z,17.2
2022-10-19T01:30:41.271Z,17.1
2022-10-19T01:31:58.230Z,17
2022-10-19T01:33:15.252Z,16.9
2022-10-19T01:34:32.334Z,16.9
2022-10-19T01:35:50.161Z,16.9
2022-10-19T01:37:07.233Z,16.8
2022-10-19T01:38:24.260Z,16.6
2022-10-19T01:39:42.588Z,16.4
2022-10-19T01:40:58.263Z,16.3
2022-10-19T01:42:15.234Z,16.2
2022-10-19T01:43:32.244Z,16.1
2022-10-19T01:44:50.121Z,16.1
2022-10-19T01:46:07.242Z,16
2022-10-19T01:47:24.347Z,15.9
2022-10-19T01:48:41.582Z,15.8
2022-10-19T01:49:59.312Z,15.9
2022-10-19T01:51:16.259Z,16
2022-10-19T01:52:33.500Z,16
2022-10-19T01:53:50.261Z,16.1
2022-10-19T01:55:07.292Z,16.1
2022-10-19T01:56:24.269Z,16.1
2022-10-19T01:57:41.293Z,16.2
2022-10-19T01:58:58.274Z,16.2
2022-10-19T02:00:15.307Z,16.2
2022-10-19T02:01:32.302Z,16.3
2022-10-19T02:02:49.274Z,16.3
2022-10-19T02:04:06.821Z,16.4
2022-10-19T02:05:24.308Z,16.4
2022-10-19T02:06:41.279Z,16.5
2022-10-19T02:07:58.358Z,16.5
2022-10-19T02:09:16.160Z,16.4
2022-10-19T02:10:33.322Z,16.4
2022-10-19T02:11:50.540Z,16.4
2022-10-19T02:13:07.317Z,16.3
2022-10-19T02:14:24.335Z,16.4
2022-10-19T02:15:41.838Z,16.4
2022-10-19T02:17:00.445Z,16.5
2022-10-19T02:18:18.185Z,16.5
2022-10-19T02:19:35.446Z,16.5
2022-10-19T02:20:52.415Z,16.5
2022-10-19T02:22:09.348Z,16.5
2022-10-19T02:23:26.304Z,16.4
2022-10-19T02:24:43.315Z,16.5
2022-10-19T02:26:00.342Z,16.5
2022-10-19T02:27:17.321Z,16.5
2022-10-19T02:28:34.339Z,16.5
2022-10-19T02:29:51.313Z,16.5
2022-10-19T02:31:08.354Z,16.4
2022-10-19T02:32:25.311Z,16.4
2022-10-19T02:33:43.146Z,16.4
2022-10-19T02:35:00.346Z,16.4
2022-10-19T02:36:18.120Z,16.4
2022-10-19T02:38:53.451Z,16.2
2022-10-19T02:40:10.339Z,16.2
2022-10-19T02:41:28.392Z,16.2
2022-10-19T02:42:45.336Z,16.2
2022-10-19T02:44:03.392Z,16.3
2022-10-19T02:45:20.328Z,16.3
2022-10-19T02:46:38.188Z,16.4
2022-10-19T02:47:55.343Z,16.4
2022-10-19T02:49:12.856Z,16.3
2022-10-19T02:50:30.364Z,16.3
2022-10-19T02:51:48.109Z,16.3
2022-10-19T02:53:05.392Z,16.3
2022-10-19T02:54:23.129Z,16.3
2022-10-19T02:56:57.356Z,16.3
2022-10-19T02:58:14.413Z,16.3
2022-10-19T02:59:31.425Z,16.3
2022-10-19T03:00:48.508Z,16.4
2022-10-19T03:02:05.468Z,16.3
2022-10-19T03:03:22.432Z,16.3
2022-10-19T03:04:39.380Z,16.4
2022-10-19T03:05:56.390Z,16.3
2022-10-19T03:07:13.361Z,16.3
2022-10-19T03:08:31.456Z,16.3
2022-10-19T03:09:48.433Z,16.3
2022-10-19T03:11:05.372Z,16.4
2022-10-19T03:12:23.143Z,16.4
2022-10-19T03:13:40.406Z,16.4
2022-10-19T03:14:58.505Z,16.4
2022-10-19T03:16:15.416Z,16.2
2022-10-19T03:17:33.459Z,16
2022-10-19T03:18:50.389Z,16.1
2022-10-19T03:20:07.402Z,16.1
2022-10-19T03:21:24.433Z,16.2
2022-10-19T03:22:41.454Z,16.3
2022-10-19T03:23:59.162Z,16.3
2022-10-19T03:25:16.506Z,16.3
2022-10-19T03:26:33.436Z,16.2
2022-10-19T03:27:50.427Z,16.3
2022-10-19T03:29:07.623Z,16.3
2022-10-19T03:30:24.409Z,16.3
2022-10-19T03:31:41.506Z,16.1
2022-10-19T03:32:58.510Z,15.9
2022-10-19T03:34:15.454Z,15.8
2022-10-19T03:35:32.446Z,15.7
2022-10-19T03:36:49.430Z,15.7
2022-10-19T03:38:06.464Z,15.7
2022-10-19T03:39:23.424Z,15.7
2022-10-19T03:40:40.487Z,15.8
2022-10-19T03:41:58.255Z,15.8
2022-10-19T03:43:15.481Z,15.9
2022-10-19T03:44:32.433Z,16
2022-10-19T03:45:49.442Z,16
2022-10-19T03:47:06.417Z,16.1
2022-10-19T03:48:23.535Z,16.1
2022-10-19T03:49:40.515Z,16.1
2022-10-19T03:50:57.437Z,16.2
2022-10-19T03:52:15.099Z,16.1
2022-10-19T03:53:33.690Z,16.1
2022-10-19T03:54:50.426Z,16.1
2022-10-19T03:56:08.182Z,16.1
2022-10-19T03:57:25.430Z,16
2022-10-19T03:58:42.502Z,16.1
2022-10-19T03:59:59.457Z,16
2022-10-19T04:01:16.555Z,16
2022-10-19T04:02:33.491Z,16
2022-10-19T04:03:50.448Z,16
2022-10-19T04:05:07.504Z,15.9
2022-10-19T04:06:25.452Z,15.9
2022-10-19T04:07:43.156Z,15.7
2022-10-19T04:09:00.467Z,15.7
2022-10-19T04:10:17.459Z,15.8
2022-10-19T04:11:34.489Z,15.9
2022-10-19T04:12:53.741Z,15.8
2022-10-19T04:15:25.469Z,15.8
2022-10-19T04:16:42.485Z,15.7
2022-10-19T04:17:59.499Z,15.7
2022-10-19T04:19:16.474Z,15.7
2022-10-19T04:20:33.483Z,15.6
2022-10-19T04:21:50.551Z,15.5
2022-10-19T04:23:07.599Z,15.6
2022-10-19T04:24:25.291Z,15.7
2022-10-19T04:25:43.200Z,15.8
2022-10-19T04:27:00.487Z,15.8
2022-10-19T04:28:17.594Z,15.7
2022-10-19T04:29:35.545Z,15.6
2022-10-19T04:30:52.559Z,15.7
2022-10-19T04:32:09.497Z,15.7
2022-10-19T04:33:26.526Z,15.6
2022-10-19T04:34:43.508Z,15.5
2022-10-19T04:36:00.519Z,15.5
2022-10-19T04:37:18.634Z,15.5
2022-10-19T04:38:35.644Z,15.6
2022-10-19T04:39:52.495Z,15.6
2022-10-19T04:47:01.611Z,15.7
2022-10-19T04:48:18.543Z,15.6
2022-10-19T04:49:35.570Z,15.6
2022-10-19T04:50:52.592Z,15.6
2022-10-19T04:52:09.616Z,15.6
2022-10-19T04:53:26.561Z,15.7
2022-10-19T04:54:43.590Z,15.7
2022-10-19T04:56:00.533Z,15.8
2022-10-19T04:57:17.562Z,15.7
2022-10-19T04:58:35.541Z,15.7
2022-10-19T04:59:52.603Z,15.7
2022-10-19T05:01:09.577Z,15.6
2022-10-19T05:02:26.530Z,15.6
2022-10-19T05:03:43.577Z,15.7
2022-10-19T05:05:00.569Z,15.7
2022-10-19T05:06:18.549Z,15.8
2022-10-19T05:07:35.783Z,15.8
2022-10-19T05:08:52.633Z,15.8
2022-10-19T05:10:09.613Z,15.7
2022-10-19T05:11:26.560Z,15.7
2022-10-19T05:12:43.563Z,15.6
2022-10-19T05:14:00.606Z,15.5
2022-10-19T05:15:17.575Z,15.5
2022-10-19T05:16:35.559Z,15.5
2022-10-19T05:17:52.559Z,15.5
2022-10-19T05:19:09.583Z,15.5
2022-10-19T05:20:26.567Z,15.5
2022-10-19T05:21:43.561Z,15.5
2022-10-19T05:23:03.296Z,15.4
2022-10-19T05:24:17.592Z,15.3
2022-10-19T05:25:35.660Z,15.3
2022-10-19T05:26:52.576Z,15.2
2022-10-19T05:28:09.597Z,15.2
2022-10-19T05:29:26.613Z,15.1
2022-10-19T05:30:48.200Z,15.1
2022-10-19T05:32:00.577Z,15
2022-10-19T05:33:17.584Z,15
2022-10-19T05:34:34.618Z,15
2022-10-19T05:35:51.607Z,15
2022-10-19T05:37:08.587Z,15.1
2022-10-19T05:38:25.619Z,15.2
2022-10-19T05:39:42.609Z,15.2
2022-10-19T05:40:59.619Z,15.2
2022-10-19T05:42:16.606Z,15.2
2022-10-19T05:43:33.615Z,15.2
2022-10-19T05:44:50.630Z,15.2
2022-10-19T05:46:07.640Z,15.2
2022-10-19T05:47:27.297Z,15.2
2022-10-19T05:48:42.799Z,15.1
2022-10-19T05:49:59.617Z,15.1
2022-10-19T05:51:16.614Z,15
2022-10-19T05:52:33.621Z,15
2022-10-19T05:53:50.692Z,14.9
2022-10-19T05:55:07.647Z,14.9
2022-10-19T05:56:24.638Z,15
2022-10-19T05:57:41.616Z,14.9
2022-10-19T05:58:58.650Z,15
2022-10-19T06:00:15.690Z,15
2022-10-19T06:01:32.683Z,15.1
2022-10-19T06:02:49.660Z,15.1
2022-10-19T06:04:06.701Z,15.1
2022-10-19T06:05:23.632Z,15
2022-10-19T06:06:40.665Z,14.9
2022-10-19T06:07:57.634Z,14.9
2022-10-19T06:09:14.668Z,14.9
2022-10-19T06:10:31.645Z,15
2022-10-19T06:11:48.705Z,15.1
2022-10-19T06:13:05.645Z,15.1
2022-10-19T06:14:22.681Z,15.1
2022-10-19T06:15:39.645Z,15.1
2022-10-19T06:16:56.695Z,15.2
2022-10-19T06:18:13.697Z,15.2
2022-10-19T06:19:31.735Z,15.2
2022-10-19T06:20:48.660Z,15.2
2022-10-19T06:22:05.698Z,15.1
2022-10-19T06:23:22.653Z,15.1
2022-10-19T06:24:39.748Z,15.1
2022-10-19T06:25:56.657Z,15.1
2022-10-19T06:27:13.859Z,15.2
2022-10-19T06:28:30.678Z,15.2
2022-10-19T06:29:47.702Z,15.2
2022-10-19T06:31:06.052Z,15.2
2022-10-19T06:32:21.683Z,15.2
2022-10-19T06:33:38.714Z,15.3
2022-10-19T06:34:56.503Z,15.3
2022-10-19T06:36:13.292Z,15.2
2022-10-19T06:37:30.835Z,15.2
2022-10-19T06:38:47.726Z,15
2022-10-19T06:40:07.000Z,15
2022-10-19T06:41:21.704Z,14.9
2022-10-19T06:42:38.732Z,14.9
2022-10-19T06:43:57.057Z,14.8
2022-10-19T06:45:14.781Z,14.7
2022-10-19T06:46:31.732Z,14.7
2022-10-19T06:47:48.740Z,14.7
2022-10-19T06:49:05.759Z,14.7
2022-10-19T06:50:22.741Z,14.8
2022-10-19T06:51:39.992Z,14.9
2022-10-19T06:52:56.748Z,15
2022-10-19T06:54:13.731Z,15.1
2022-10-19T06:55:30.702Z,15
2022-10-19T06:56:47.724Z,15.1
2022-10-19T06:58:04.736Z,15.2
2022-10-19T06:59:21.735Z,15.2
2022-10-19T07:00:38.759Z,15.2
2022-10-19T07:01:55.713Z,15.3
2022-10-19T07:03:12.717Z,15.5
2022-10-19T07:04:29.798Z,15.5
2022-10-19T07:05:46.753Z,15.4
2022-10-19T07:07:03.754Z,15.4
2022-10-19T07:08:20.721Z,15.4
2022-10-19T07:09:37.786Z,15.4
2022-10-19T07:10:54.779Z,15.4
2022-10-19T07:12:11.768Z,15.3
2022-10-19T07:13:28.801Z,15.2
2022-10-19T07:14:45.977Z,15.2
2022-10-19T07:16:02.771Z,15.1
2022-10-19T07:17:19.734Z,15.1
2022-10-19T07:18:36.751Z,15.2
2022-10-19T07:19:53.792Z,15.4
2022-10-19T07:21:10.889Z,16
2022-10-19T07:22:28.309Z,16.4
2022-10-19T07:23:44.777Z,16.6
2022-10-19T07:25:01.929Z,16.7
2022-10-19T07:26:18.765Z,16.5
2022-10-19T07:27:37.706Z,16.5
2022-10-19T07:28:52.777Z,16.4
2022-10-19T07:30:09.828Z,16.2
2022-10-19T07:31:26.836Z,16.1
2022-10-19T07:32:46.866Z,16
2022-10-19T07:34:00.748Z,16
2022-10-19T07:35:17.785Z,16
2022-10-19T07:36:34.765Z,15.9
2022-10-19T07:37:51.759Z,15.6
2022-10-19T07:39:08.758Z,15.5
2022-10-19T07:40:25.786Z,15.5
2022-10-19T07:41:42.764Z,15.5
2022-10-19T07:42:59.771Z,15.4
2022-10-19T07:44:16.818Z,15.4
2022-10-19T07:45:33.956Z,15.3
2022-10-19T07:46:50.782Z,15.3
2022-10-19T07:48:07.983Z,15.2
2022-10-19T07:49:24.775Z,15.3
2022-10-19T07:50:41.809Z,15.4
2022-10-19T07:51:58.835Z,15.3
2022-10-19T07:53:15.860Z,15.3
2022-10-19T07:54:32.812Z,15.3
2022-10-19T07:55:49.838Z,15.3
2022-10-19T07:57:07.262Z,15.3
2022-10-19T07:58:24.888Z,15.3
2022-10-19T07:59:41.879Z,15.2
2022-10-19T08:00:58.830Z,15.3
2022-10-19T08:02:16.063Z,15.3
2022-10-19T08:05:00.095Z,15.3
2022-10-19T08:06:06.913Z,15.4
2022-10-19T08:07:23.841Z,15.4
2022-10-19T08:08:40.870Z,15.5
2022-10-19T08:09:57.871Z,15.5
2022-10-19T08:11:14.982Z,15.5
2022-10-19T08:12:32.134Z,15.5
2022-10-19T08:13:48.813Z,15.6
2022-10-19T08:15:06.059Z,15.7
2022-10-19T08:16:22.859Z,15.8
2022-10-19T08:17:39.816Z,15.8
2022-10-19T08:18:56.835Z,15.8
2022-10-19T08:20:13.854Z,15.7
2022-10-19T08:21:30.861Z,15.8
2022-10-19T08:22:47.807Z,15.8
2022-10-19T08:24:04.846Z,15.8
2022-10-19T08:25:22.191Z,15.8
2022-10-19T08:26:38.928Z,15.9
2022-10-19T08:27:55.933Z,16
2022-10-19T08:29:12.854Z,15.8
2022-10-19T08:30:29.932Z,15.6
2022-10-19T08:31:46.811Z,15.5
2022-10-19T08:33:03.951Z,15.5
2022-10-19T08:34:20.988Z,15.5
2022-10-19T08:35:37.872Z,15.6
2022-10-19T08:36:55.033Z,15.5
2022-10-19T08:38:11.874Z,15.5
2022-10-19T08:39:28.846Z,15.7
2022-10-19T08:40:45.853Z,15.8
2022-10-19T08:42:02.857Z,15.9
2022-10-19T08:43:19.872Z,15.9
2022-10-19T08:44:36.829Z,15.8
2022-10-19T08:45:53.951Z,15.6
2022-10-19T08:47:12.162Z,15.6
2022-10-19T08:48:27.831Z,15.9
2022-10-19T08:49:44.883Z,16.2
2022-10-19T08:51:02.277Z,16.3
2022-10-19T08:52:18.857Z,16.5
2022-10-19T08:53:35.848Z,16.7
2022-10-19T08:54:52.866Z,16.7
2022-10-19T08:56:12.358Z,16.8
2022-10-19T08:57:26.882Z,16.9
2022-10-19T08:58:43.855Z,17
2022-10-19T09:00:00.904Z,17.1
2022-10-19T09:01:18.032Z,17.1
2022-10-19T09:02:35.418Z,16.8
2022-10-19T09:03:55.985Z,16.8
2022-10-19T09:05:08.901Z,16.6
2022-10-19T09:06:25.918Z,16.3
2022-10-19T09:07:42.908Z,16.3
2022-10-19T09:09:00.222Z,16.5
2022-10-19T09:10:16.937Z,16.7
2022-10-19T09:11:33.901Z,17.1
2022-10-19T09:12:52.842Z,17.6
2022-10-19T09:14:07.880Z,17.8
2022-10-19T09:15:24.896Z,17.7
2022-10-19T09:16:41.915Z,17.4
2022-10-19T09:17:58.903Z,17.2
2022-10-19T09:19:15.905Z,17.2
2022-10-19T09:20:32.887Z,17.5
2022-10-19T09:21:49.922Z,17.9
2022-10-19T09:23:11.104Z,18.1
2022-10-19T09:24:23.898Z,18
2022-10-19T09:25:40.920Z,17.8
2022-10-19T09:26:57.922Z,17.6
2022-10-19T09:28:14.921Z,17.5
2022-10-19T09:29:31.881Z,17.3
2022-10-19T09:30:48.918Z,17.2
2022-10-19T09:32:05.947Z,16.9
2022-10-19T09:33:22.985Z,16.7
2022-10-19T09:34:39.908Z,16.6
2022-10-19T09:35:56.901Z,16.6
2022-10-19T09:37:20.147Z,16.7
2022-10-19T09:38:30.903Z,16.8
2022-10-19T09:39:50.485Z,17
2022-10-19T09:41:04.939Z,17.2
2022-10-19T09:42:21.989Z,17.4
2022-10-19T09:43:38.926Z,17.4
2022-10-19T09:44:55.958Z,17.3
2022-10-19T09:46:19.642Z,17.3
2022-10-19T09:47:29.945Z,17.2
2022-10-19T09:48:46.977Z,17.1
2022-10-19T09:50:04.020Z,17
2022-10-19T09:51:20.946Z,16.8
2022-10-19T09:52:37.962Z,16.8
2022-10-19T09:53:54.963Z,16.7
2022-10-19T09:55:12.118Z,16.7
2022-10-19T09:56:28.938Z,16.6
2022-10-19T09:57:45.994Z,16.6
2022-10-19T09:59:02.935Z,16.4
2022-10-19T10:00:19.975Z,16.4
2022-10-19T10:01:40.063Z,16.5
2022-10-19T10:02:54.007Z,16.6
2022-10-19T10:04:10.983Z,16.7
2022-10-19T10:05:28.094Z,16.8
2022-10-19T10:06:44.965Z,16.8
2022-10-19T10:08:02.114Z,16.9
2022-10-19T10:09:18.980Z,17
2022-10-19T10:10:36.026Z,17.1
2022-10-19T10:11:52.978Z,17
2022-10-19T10:13:09.981Z,17
2022-10-19T10:14:26.969Z,16.9
2022-10-19T10:15:44.079Z,17.1
2022-10-19T10:17:00.968Z,17
2022-10-19T10:18:18.011Z,17
2022-10-19T10:19:34.971Z,17
2022-10-19T10:20:52.559Z,16.9
2022-10-19T10:22:09.981Z,16.8
2022-10-19T10:23:26.995Z,16.9
2022-10-19T10:24:43.977Z,17
2022-10-19T10:26:01.002Z,17.1
2022-10-19T10:27:18.044Z,17.1
2022-10-19T10:28:34.983Z,17
2022-10-19T10:29:52.024Z,16.9
2022-10-19T10:31:08.994Z,16.9
2022-10-19T10:32:26.007Z,16.9
2022-10-19T10:33:45.272Z,16.9
2022-10-19T10:35:01.425Z,16.9
2022-10-19T10:36:17.508Z,16.9
2022-10-19T10:37:34.147Z,16.9
2022-10-19T10:38:51.429Z,16.9
2022-10-19T10:40:08.081Z,16.9
2022-10-19T10:41:25.052Z,17
2022-10-19T10:42:42.506Z,16.9
2022-10-19T10:43:59.737Z,16.9
2022-10-19T10:45:16.068Z,16.9
2022-10-19T10:46:33.014Z,16.9
2022-10-19T10:47:50.054Z,16.9
2022-10-19T10:49:07.112Z,17.1
2022-10-19T10:50:24.085Z,17.1
2022-10-19T10:51:41.056Z,17
2022-10-19T10:52:58.052Z,17
2022-10-19T10:54:15.124Z,16.9
2022-10-19T10:55:32.063Z,16.8
2022-10-19T10:56:49.085Z,16.8
2022-10-19T10:58:06.063Z,16.8
2022-10-19T10:59:23.022Z,16.8
2022-10-19T11:00:40.074Z,17
2022-10-19T11:01:57.521Z,17.1
2022-10-19T11:03:14.049Z,17.2
2022-10-19T11:04:31.062Z,17.4
2022-10-19T11:05:48.164Z,17.4
2022-10-19T11:07:05.031Z,17.2
2022-10-19T11:08:22.143Z,17
2022-10-19T11:09:39.043Z,17
2022-10-19T11:10:56.074Z,17
2022-10-19T11:12:13.091Z,17.1
2022-10-19T11:13:30.201Z,17.2
2022-10-19T11:14:47.128Z,17.2
2022-10-19T11:16:04.166Z,17.1
2022-10-19T11:17:21.050Z,17
2022-10-19T11:18:38.056Z,16.8
2022-10-19T11:19:55.126Z,16.7
2022-10-19T11:21:12.185Z,16.7
2022-10-19T11:22:29.085Z,16.7
2022-10-19T11:23:46.139Z,16.7
2022-10-19T11:25:03.205Z,16.5
2022-10-19T11:26:20.220Z,16.5
2022-10-19T11:27:37.335Z,16.5
2022-10-19T11:28:54.172Z,16.6
2022-10-19T11:30:11.206Z,16.7
2022-10-19T11:31:29.620Z,16.7
2022-10-19T11:32:45.989Z,16.7
2022-10-19T11:34:02.630Z,16.7
2022-10-19T11:35:19.101Z,16.8
2022-10-19T11:36:36.134Z,16.9
2022-10-19T11:38:14.167Z,17
2022-10-19T11:39:10.100Z,17
2022-10-19T11:40:27.392Z,16.9
2022-10-19T11:41:44.178Z,16.8
2022-10-19T11:43:01.088Z,16.7
2022-10-19T11:44:18.087Z,16.7
2022-10-19T11:45:35.099Z,16.8
2022-10-19T11:46:52.386Z,16.8
2022-10-19T11:48:09.123Z,16.7
2022-10-19T11:49:26.109Z,16.7
2022-10-19T11:50:44.186Z,16.6
2022-10-19T11:52:00.295Z,16.5
2022-10-19T11:53:17.207Z,16.3
2022-10-19T11:54:34.130Z,16.3
2022-10-19T11:55:51.112Z,16.2
2022-10-19T11:57:11.317Z,16.1
2022-10-19T11:58:25.116Z,16.2
2022-10-19T11:59:42.206Z,16.1
2022-10-19T12:00:59.107Z,16.1
2022-10-19T12:02:16.189Z,16.1
2022-10-19T12:03:33.123Z,16.2
2022-10-19T12:04:50.154Z,16.2
2022-10-19T12:06:07.318Z,16.4
2022-10-19T12:07:24.135Z,16.6
2022-10-19T12:08:41.194Z,16.7
2022-10-19T12:09:58.244Z,16.7
2022-10-19T12:11:15.145Z,16.8
2022-10-19T12:12:32.413Z,16.8
2022-10-19T12:13:49.126Z,16.9
2022-10-19T12:15:06.544Z,16.9
2022-10-19T12:16:23.143Z,16.9
2022-10-19T12:17:40.141Z,16.8
2022-10-19T12:18:57.458Z,16.8
2022-10-19T12:20:16.086Z,16.9
2022-10-19T12:21:31.165Z,16.8
2022-10-19T12:22:48.141Z,16.5
2022-10-19T12:24:05.173Z,16.4
2022-10-19T12:25:22.912Z,16.3
2022-10-19T12:26:40.172Z,16.3
2022-10-19T12:27:57.195Z,16.2
2022-10-19T12:29:14.167Z,16.1
2022-10-19T12:30:31.184Z,16
2022-10-19T12:31:48.195Z,16
2022-10-19T12:33:05.160Z,16
2022-10-19T12:34:22.165Z,16
2022-10-19T12:35:39.250Z,16.2
2022-10-19T12:36:56.212Z,16.2
2022-10-19T12:38:13.401Z,16.2
2022-10-19T12:39:30.220Z,16.2
2022-10-19T12:40:47.534Z,16.2
2022-10-19T12:42:04.183Z,16.3
2022-10-19T12:43:21.219Z,16.3
2022-10-19T12:44:38.180Z,16.3
2022-10-19T12:45:55.228Z,16.3
2022-10-19T12:47:12.241Z,16.5
2022-10-19T12:48:29.234Z,16.5
2022-10-19T12:49:46.185Z,16.4
2022-10-19T12:51:03.237Z,16.4
2022-10-19T12:52:20.272Z,16.4
2022-10-19T12:53:37.204Z,16.3
2022-10-19T12:54:54.218Z,16.2
2022-10-19T12:56:11.199Z,16.1
2022-10-19T12:57:28.273Z,16
2022-10-19T12:58:47.828Z,16.1
2022-10-19T13:00:02.307Z,16.1
2022-10-19T13:01:19.292Z,16.2
2022-10-19T13:02:36.291Z,16.1
2022-10-19T13:03:53.264Z,16.1
2022-10-19T13:05:10.208Z,16
2022-10-19T13:06:27.705Z,16.1
2022-10-19T13:07:45.384Z,16.1
2022-10-19T13:09:02.313Z,16.1
2022-10-19T13:10:19.274Z,16
2022-10-19T13:11:36.343Z,16
2022-10-19T13:12:53.300Z,15.9
2022-10-19T13:14:10.246Z,15.9
2022-10-19T13:15:27.439Z,16
2022-10-19T13:16:44.287Z,15.9
2022-10-19T13:18:01.355Z,15.8
2022-10-19T13:19:18.360Z,15.7
2022-10-19T13:20:35.281Z,15.6
2022-10-19T13:21:52.582Z,15.7
2022-10-19T13:23:10.425Z,15.9
2022-10-19T13:24:27.295Z,16
2022-10-19T13:25:44.245Z,16
2022-10-19T13:27:01.287Z,16
2022-10-19T13:28:18.284Z,16
2022-10-19T13:29:35.296Z,16
2022-10-19T13:30:52.299Z,16
2022-10-19T13:32:09.640Z,16
2022-10-19T13:33:27.299Z,15.9
2022-10-19T13:34:44.256Z,16
2022-10-19T13:36:01.534Z,16
2022-10-19T13:37:18.416Z,16.1
2022-10-19T13:39:52.258Z,16.5
2022-10-19T13:41:10.324Z,16.8
2022-10-19T13:42:27.333Z,17
2022-10-19T13:43:44.262Z,17.1
2022-10-19T13:45:01.286Z,17.2
2022-10-19T13:46:18.328Z,17.2
2022-10-19T13:47:35.514Z,17.1
2022-10-19T13:48:52.360Z,17.1
2022-10-19T13:50:09.306Z,17
2022-10-19T13:51:26.310Z,16.9
2022-10-19T13:52:43.415Z,16.9
2022-10-19T13:54:00.325Z,16.7
2022-10-19T13:55:17.321Z,16.7
2022-10-19T13:56:34.361Z,16.6
2022-10-19T13:57:52.939Z,16.6
2022-10-19T13:59:08.348Z,16.5
2022-10-19T14:00:26.363Z,16.5
2022-10-19T14:01:43.369Z,16.4
2022-10-19T14:03:00.316Z,16.5
2022-10-19T14:04:17.364Z,16.6
2022-10-19T14:05:34.332Z,16.7
2022-10-19T14:06:51.310Z,16.7
2022-10-19T14:08:08.319Z,16.7
2022-10-19T14:09:25.396Z,16.8
2022-10-19T14:11:00.424Z,16.9
2022-10-19T14:11:59.306Z,17
2022-10-19T14:13:16.316Z,17.1
2022-10-19T14:14:33.408Z,17.3
2022-10-19T14:15:50.420Z,17.4
2022-10-19T14:17:07.342Z,17.3
2022-10-19T14:18:24.469Z,17.1
2022-10-19T14:19:41.321Z,16.9
2022-10-19T14:20:58.737Z,16.9
2022-10-19T14:22:15.328Z,17.1
2022-10-19T14:23:32.432Z,17.2
2022-10-19T14:24:49.371Z,17.3
2022-10-19T14:26:06.380Z,17.3
2022-10-19T14:27:23.336Z,17.4
2022-10-19T14:28:40.335Z,17.5
2022-10-19T14:29:57.338Z,17.5
2022-10-19T14:31:14.354Z,17.4
2022-10-19T14:32:31.414Z,17.2
2022-10-19T14:33:48.346Z,17
2022-10-19T14:36:22.340Z,16.7
2022-10-19T14:37:39.419Z,16.6
2022-10-19T14:38:56.398Z,16.6
2022-10-19T14:40:13.617Z,16.8
2022-10-19T14:41:30.430Z,17
2022-10-19T14:42:47.396Z,17
2022-10-19T14:44:04.366Z,17
2022-10-19T14:45:21.504Z,16.9
2022-10-19T14:46:38.387Z,16.8
2022-10-19T14:47:55.395Z,16.8
2022-10-19T14:49:12.367Z,16.7
2022-10-19T14:50:29.396Z,16.6
2022-10-19T14:51:46.664Z,16.6
2022-10-19T14:53:03.372Z,16.7
2022-10-19T14:54:20.374Z,16.7
2022-10-19T14:55:37.426Z,16.8
2022-10-19T14:56:54.535Z,16.7
2022-10-19T14:58:11.369Z,16.5
2022-10-19T14:59:28.484Z,16.4
2022-10-19T15:00:45.396Z,16.3
2022-10-19T15:02:02.482Z,16.2
2022-10-19T15:03:19.423Z,16.1
2022-10-19T15:04:36.386Z,16.2
2022-10-19T15:05:53.392Z,16.2
2022-10-19T15:07:10.393Z,16.2
2022-10-19T15:08:27.493Z,16.1
2022-10-19T15:09:48.067Z,16.2
2022-10-19T15:11:01.419Z,16.1
2022-10-19T15:12:18.413Z,16.2
2022-10-19T15:13:35.439Z,16.3
2022-10-19T15:14:52.437Z,16.4
2022-10-19T15:16:09.410Z,16.4
2022-10-19T15:17:26.404Z,16.4
2022-10-19T15:18:49.444Z,16.3
2022-10-19T15:20:00.607Z,16.3
2022-10-19T15:21:17.434Z,16.4
2022-10-19T15:22:34.775Z,16.3
2022-10-19T15:23:51.459Z,16.4
2022-10-19T15:25:08.468Z,16.3
2022-10-19T15:26:25.438Z,16.3
2022-10-19T15:27:42.584Z,16.3
2022-10-19T15:28:59.432Z,16.3
2022-10-19T15:30:16.488Z,16.3
2022-10-19T15:31:33.421Z,16.2
2022-10-19T15:32:50.433Z,16.1
2022-10-19T15:34:07.459Z,16.1
2022-10-19T15:35:24.493Z,16.1
2022-10-19T15:36:41.460Z,16.2
2022-10-19T15:37:58.441Z,16.3
2022-10-19T15:39:32.752Z,16.3
2022-10-19T15:40:33.786Z,16.4
2022-10-19T15:41:52.474Z,16.5
2022-10-19T15:43:09.450Z,16.5
2022-10-19T15:44:26.466Z,16.5
2022-10-19T15:45:43.541Z,16.5
2022-10-19T15:47:00.490Z,16.5
2022-10-19T15:48:17.524Z,16.4
2022-10-19T15:49:34.515Z,16.3
2022-10-19T15:50:51.454Z,16.2
2022-10-19T15:52:08.495Z,16.1
2022-10-19T15:53:25.453Z,16
2022-10-19T15:54:42.503Z,15.9
2022-10-19T15:55:59.543Z,16
2022-10-19T15:57:16.494Z,16.1
2022-10-19T15:58:33.494Z,16.3
2022-10-19T15:59:50.516Z,16.4
2022-10-19T16:01:07.517Z,16.7
2022-10-19T16:02:24.470Z,16.9
2022-10-19T16:03:41.470Z,17.1
2022-10-19T16:04:58.585Z,17.2
2022-10-19T16:06:15.473Z,17.4
2022-10-19T16:07:32.611Z,17.5
2022-10-19T16:08:49.527Z,17.5
2022-10-19T16:10:06.689Z,17.5
2022-10-19T16:11:23.494Z,17.5
2022-10-19T16:12:40.511Z,17.5
2022-10-19T16:13:57.490Z,17.4
2022-10-19T16:15:14.748Z,17.3
2022-10-19T16:16:31.491Z,17.1
2022-10-19T16:17:48.541Z,17
2022-10-19T16:19:05.499Z,17
2022-10-19T16:20:22.710Z,17
2022-10-19T16:21:39.504Z,17.1
2022-10-19T16:22:56.513Z,17.2
2022-10-19T16:24:13.534Z,17.2
2022-10-19T16:25:30.575Z,17.3
2022-10-19T16:26:47.508Z,17.2
2022-10-19T16:28:04.531Z,17.1
2022-10-19T16:29:23.387Z,16.9
2022-10-19T16:30:38.553Z,16.8
2022-10-19T16:31:55.518Z,16.6
2022-10-19T16:33:12.514Z,16.5
2022-10-19T16:34:29.520Z,16.4
2022-10-19T16:35:46.539Z,16.2
2022-10-19T16:37:05.712Z,16.2
2022-10-19T16:38:20.619Z,16
2022-10-19T16:39:37.566Z,16
2022-10-19T16:40:54.528Z,16
2022-10-19T16:42:11.523Z,16
2022-10-19T16:43:28.597Z,16.1
2022-10-19T16:44:45.535Z,16.1
2022-10-19T16:46:02.566Z,16.2
2022-10-19T16:47:19.541Z,16.3
2022-10-19T16:48:36.564Z,16.3
2022-10-19T16:49:53.585Z,16.3
2022-10-19T16:51:10.571Z,16.3
2022-10-19T16:52:27.555Z,16.4
2022-10-19T16:53:44.583Z,16.3
2022-10-19T16:55:01.669Z,16.3
2022-10-19T16:56:18.538Z,16.3
2022-10-19T16:57:35.571Z,16.3
2022-10-19T16:58:52.601Z,16.2
2022-10-19T17:00:09.635Z,16.3
2022-10-19T17:01:26.649Z,16.3
2022-10-19T17:02:44.498Z,16.3
2022-10-19T17:04:00.606Z,16.3
2022-10-19T17:05:17.709Z,16.3
2022-10-19T17:06:34.627Z,16.3
2022-10-19T17:07:51.673Z,16.4
2022-10-19T17:09:40.608Z,16.3
2022-10-19T17:10:25.639Z,16.3
2022-10-19T17:11:42.602Z,16.3
2022-10-19T17:12:59.570Z,16.3
2022-10-19T17:14:16.622Z,16.3
2022-10-19T17:15:49.134Z,16.3
2022-10-19T17:16:50.588Z,16.2
2022-10-19T17:18:07.605Z,16.2
2022-10-19T17:19:24.603Z,16.3
2022-10-19T17:20:41.611Z,16.2
2022-10-19T17:21:58.616Z,16.2
2022-10-19T17:23:15.602Z,16.2
2022-10-19T17:24:32.620Z,16.2
2022-10-19T17:25:49.670Z,16.2
2022-10-19T17:27:06.681Z,16.1